Terminal Aerodrome Forecast
Issued by NWS

Home | Current Version | Previous Version | Text Only | Print | Product List | Glossary On
Versions: 1 2 3 4 5 6 7 8 9 10 11 12 13 14
000
FTUS43 KAPX 271036 AAA
TAFPLN
TAF AMD
KPLN 271036Z 2711/2806 00000KT P6SM SKC
     FM271500 26008KT P6SM SKC
     FM280000 23003KT P6SM FEW035=

USA.gov is the U.S. government's official web portal to all federal, state and local government web resources and services.